createdAt,value
2022-08-02T00:00:57.720Z,99.30
2022-08-02T00:03:24.985Z,99.40
2022-08-02T00:05:53.114Z,99.60
2022-08-02T00:08:22.274Z,99.60
2022-08-02T00:10:50.209Z,99.40
2022-08-02T00:13:17.478Z,99.10
2022-08-02T00:15:44.848Z,99.10
2022-08-02T00:18:12.047Z,99.20
2022-08-02T00:20:39.290Z,99.20
2022-08-02T00:23:06.450Z,99.20
2022-08-02T00:25:33.749Z,99.10
2022-08-02T00:28:00.950Z,97.60
2022-08-02T00:30:28.290Z,97.30
2022-08-02T00:32:55.509Z,97.40
2022-08-02T00:35:23.236Z,96.90
2022-08-02T00:37:51.354Z,96.60
2022-08-02T00:40:23.256Z,96.70
2022-08-02T00:43:04.309Z,96.60
2022-08-02T00:46:02.342Z,96.90
2022-08-02T00:48:20.049Z,97.10
2022-08-02T00:50:47.259Z,96.90
2022-08-02T00:53:14.459Z,96.50
2022-08-02T00:55:41.749Z,96.90
2022-08-02T00:58:09.283Z,96.50
2022-08-02T01:00:36.676Z,96.40
2022-08-02T01:03:03.893Z,96.40
2022-08-02T01:05:55.720Z,96.30
2022-08-02T01:08:21.080Z,96.10
2022-08-02T01:10:56.823Z,96.10
2022-08-02T01:13:25.330Z,96.00
2022-08-02T01:16:00.763Z,96.00
2022-08-02T01:18:36.011Z,96.20
2022-08-02T01:21:14.131Z,96.70
2022-08-02T01:24:18.804Z,97.30
2022-08-02T01:27:03.228Z,98.00
2022-08-02T01:29:43.641Z,98.50
2022-08-02T01:32:23.562Z,98.70
2022-08-02T01:35:00.015Z,98.80
2022-08-02T01:37:45.608Z,98.80
2022-08-02T01:40:22.476Z,99.00
2022-08-02T01:42:53.271Z,99.20
2022-08-02T01:45:24.812Z,99.30
2022-08-02T01:47:54.727Z,99.50
2022-08-02T01:50:32.627Z,99.60
2022-08-02T01:53:03.821Z,99.70
2022-08-02T01:55:57.820Z,99.80
2022-08-02T01:58:30.986Z,99.90
2022-08-02T02:00:59.748Z,99.90
2022-08-02T02:03:29.121Z,99.60
2022-08-02T02:05:58.617Z,99.50
2022-08-02T02:08:39.115Z,99.50
2022-08-02T02:12:12.170Z,99.80
2022-08-02T02:13:59.018Z,99.80
2022-08-02T02:16:27.416Z,99.70
2022-08-02T02:18:55.026Z,99.50
2022-08-02T02:21:22.303Z,99.80
2022-08-02T02:23:50.075Z,99.90
2022-08-02T02:26:27.626Z,99.90
2022-08-02T02:29:02.031Z,99.90
2022-08-02T02:31:37.499Z,99.90
2022-08-02T02:34:10.328Z,99.90
2022-08-02T02:36:41.562Z,99.90
2022-08-02T02:39:13.742Z,99.90
2022-08-02T02:41:43.660Z,99.90
2022-08-02T02:44:15.584Z,99.90
2022-08-02T02:46:44.242Z,99.90
2022-08-02T02:49:13.144Z,99.90
2022-08-02T02:51:41.974Z,99.90
2022-08-02T02:54:33.118Z,99.90
2022-08-02T02:57:00.374Z,99.90
2022-08-02T02:59:28.814Z,99.90
2022-08-02T03:02:08.338Z,99.90
2022-08-02T03:04:56.959Z,99.90
2022-08-02T03:07:23.789Z,99.90
2022-08-02T03:09:54.323Z,99.90
2022-08-02T03:12:28.789Z,99.90
2022-08-02T03:15:04.309Z,99.90
2022-08-02T03:17:42.487Z,99.90
2022-08-02T03:20:22.766Z,99.90
2022-08-02T03:22:50.343Z,99.90
2022-08-02T03:25:18.744Z,99.90
2022-08-02T03:27:46.907Z,99.90
2022-08-02T03:30:14.754Z,99.90
2022-08-02T03:32:44.827Z,99.90
2022-08-02T03:35:18.621Z,99.90
2022-08-02T03:37:52.359Z,99.90
2022-08-02T03:40:19.736Z,99.90
2022-08-02T03:42:47.708Z,99.90
2022-08-02T03:45:15.582Z,99.90
2022-08-02T03:47:44.708Z,99.90
2022-08-02T03:50:16.404Z,99.90
2022-08-02T03:52:44.985Z,99.90
2022-08-02T03:55:13.375Z,99.90
2022-08-02T03:57:42.813Z,99.90
2022-08-02T04:00:13.036Z,99.90
2022-08-02T04:02:40.258Z,99.90
2022-08-02T04:05:07.765Z,99.90
2022-08-02T04:08:33.001Z,99.90
2022-08-02T04:10:22.282Z,99.90
2022-08-02T04:12:50.205Z,99.90
2022-08-02T04:15:17.852Z,99.90
2022-08-02T04:17:50.873Z,99.90
2022-08-02T04:20:22.771Z,99.90
2022-08-02T04:23:02.981Z,99.90
2022-08-02T04:25:40.278Z,99.90
2022-08-02T04:28:17.407Z,99.90
2022-08-02T04:30:49.919Z,99.90
2022-08-02T04:33:17.591Z,99.90
2022-08-02T04:35:45.257Z,99.90
2022-08-02T04:38:15.944Z,99.90
2022-08-02T04:40:55.316Z,99.90
2022-08-02T04:43:23.450Z,99.90
2022-08-02T04:45:53.080Z,99.90
2022-08-02T04:48:22.686Z,99.90
2022-08-02T04:50:50.484Z,99.90
2022-08-02T04:53:18.057Z,99.90
2022-08-02T04:55:45.409Z,99.90
2022-08-02T04:58:39.016Z,99.90
2022-08-02T05:01:01.187Z,99.90
2022-08-02T05:03:28.499Z,99.90
2022-08-02T05:05:55.891Z,99.90
2022-08-02T05:08:23.081Z,99.90
2022-08-02T05:10:50.311Z,99.90
2022-08-02T05:13:17.497Z,99.90
2022-08-02T05:15:44.904Z,99.90
2022-08-02T05:18:12.382Z,99.90
2022-08-02T05:20:40.480Z,99.90
2022-08-02T05:23:07.767Z,99.90
2022-08-02T05:25:35.073Z,99.90
2022-08-02T05:28:02.345Z,99.90
2022-08-02T05:30:29.566Z,99.90
2022-08-02T05:32:56.904Z,99.90
2022-08-02T05:35:25.082Z,99.90
2022-08-02T05:37:52.493Z,99.90
2022-08-02T05:40:25.355Z,99.90
2022-08-02T05:42:53.630Z,99.90
2022-08-02T05:45:21.323Z,99.90
2022-08-02T05:47:48.580Z,99.90
2022-08-02T05:50:15.829Z,99.90
2022-08-02T05:52:49.118Z,99.90
2022-08-02T05:55:19.394Z,99.90
2022-08-02T05:58:05.092Z,99.90
2022-08-02T06:00:33.410Z,99.90
2022-08-02T06:03:16.795Z,99.90
2022-08-02T06:05:58.933Z,99.90
2022-08-02T06:08:38.203Z,99.90
2022-08-02T06:11:09.203Z,99.90
2022-08-02T06:13:37.088Z,99.90
2022-08-02T06:16:06.030Z,99.90
2022-08-02T06:18:42.805Z,99.90
2022-08-02T06:22:33.903Z,99.90
2022-08-02T06:23:59.550Z,99.90
2022-08-02T06:26:28.366Z,99.90
2022-08-02T06:28:57.090Z,99.90
2022-08-02T06:31:24.793Z,99.90
2022-08-02T06:33:52.337Z,99.90
2022-08-02T06:36:30.884Z,99.90
2022-08-02T06:39:12.763Z,99.90
2022-08-02T06:41:42.427Z,99.90
2022-08-02T06:44:48.080Z,99.90
2022-08-02T06:47:11.090Z,99.90
2022-08-02T06:49:51.752Z,99.90
2022-08-02T06:52:33.040Z,99.90
2022-08-02T06:55:02.489Z,99.90
2022-08-02T06:57:32.053Z,99.90
2022-08-02T07:00:02.458Z,99.90
2022-08-02T07:02:31.661Z,99.90
2022-08-02T07:04:59.397Z,99.90
2022-08-02T07:07:27.830Z,99.90
2022-08-02T07:10:00.758Z,99.90
2022-08-02T07:12:34.331Z,99.90
2022-08-02T07:15:03.267Z,99.90
2022-08-02T07:17:32.930Z,99.90
2022-08-02T07:20:00.870Z,99.90
2022-08-02T07:22:29.329Z,99.90
2022-08-02T07:24:59.346Z,99.90
2022-08-02T07:27:26.888Z,99.90
2022-08-02T07:29:54.487Z,99.90
2022-08-02T07:32:24.511Z,99.90
2022-08-02T07:34:54.190Z,99.60
2022-08-02T07:37:54.230Z,99.40
2022-08-02T07:40:15.173Z,99.40
2022-08-02T07:42:56.540Z,99.30
2022-08-02T07:45:28.268Z,99.10
2022-08-02T07:47:57.000Z,98.80
2022-08-02T07:50:25.408Z,98.30
2022-08-02T07:52:57.444Z,96.20
2022-08-02T07:55:35.222Z,95.10
2022-08-02T07:58:13.064Z,94.60
2022-08-02T08:00:43.563Z,94.20
2022-08-02T08:03:11.020Z,94.00
2022-08-02T08:05:38.458Z,93.20
2022-08-02T08:08:06.263Z,92.10
2022-08-02T08:10:33.744Z,90.80
2022-08-02T08:13:01.009Z,90.60
2022-08-02T08:15:28.409Z,91.20
2022-08-02T08:17:55.537Z,90.30
2022-08-02T08:20:23.149Z,87.30
2022-08-02T08:22:50.421Z,88.90
2022-08-02T08:25:18.657Z,88.10
2022-08-02T08:27:52.042Z,87.30
2022-08-02T08:30:21.971Z,86.60
2022-08-02T08:32:49.429Z,85.40
2022-08-02T08:35:17.158Z,84.60
2022-08-02T08:37:44.363Z,83.70
2022-08-02T08:40:12.595Z,83.40
2022-08-02T08:42:40.375Z,84.20
2022-08-02T08:45:09.065Z,83.70
2022-08-02T08:47:38.852Z,83.90
2022-08-02T08:50:24.957Z,85.00
2022-08-02T08:52:52.761Z,84.50
2022-08-02T08:55:23.631Z,84.60
2022-08-02T08:57:52.073Z,84.20
2022-08-02T09:00:19.480Z,83.30
2022-08-02T09:02:47.339Z,83.30
2022-08-02T09:05:16.721Z,84.10
2022-08-02T09:07:48.185Z,82.90
2022-08-02T09:10:36.041Z,83.90
2022-08-02T09:13:31.270Z,84.10
2022-08-02T09:15:57.672Z,81.80
2022-08-02T09:18:37.149Z,82.70
2022-08-02T09:21:06.453Z,81.00
2022-08-02T09:23:42.493Z,81.50
2022-08-02T09:26:12.288Z,81.30
2022-08-02T09:28:41.965Z,79.40
2022-08-02T09:31:11.702Z,78.80
2022-08-02T09:33:41.335Z,74.90
2022-08-02T09:36:13.782Z,74.60
2022-08-02T09:38:52.470Z,74.40
2022-08-02T09:41:25.612Z,75.30
2022-08-02T09:44:05.477Z,75.80
2022-08-02T09:46:38.034Z,74.20
2022-08-02T09:49:05.856Z,75.40
2022-08-02T09:51:35.955Z,74.80
2022-08-02T09:54:09.702Z,73.90
2022-08-02T09:56:46.339Z,72.60
2022-08-02T09:59:14.689Z,71.70
2022-08-02T10:01:50.606Z,71.60
2022-08-02T10:04:30.503Z,71.50
2022-08-02T10:06:59.836Z,69.50
2022-08-02T10:09:29.080Z,70.50
2022-08-02T10:11:57.274Z,70.60
2022-08-02T10:14:26.666Z,71.10
2022-08-02T10:16:54.815Z,71.20
2022-08-02T10:20:03.156Z,72.80
2022-08-02T10:22:12.285Z,73.10
2022-08-02T10:24:47.778Z,72.80
2022-08-02T10:27:18.912Z,73.50
2022-08-02T10:29:54.064Z,73.00
2022-08-02T10:32:46.341Z,72.70
2022-08-02T10:35:25.573Z,71.40
2022-08-02T10:38:01.324Z,71.30
2022-08-02T10:40:53.749Z,70.30
2022-08-02T10:43:35.964Z,70.20
2022-08-02T10:46:23.317Z,71.50
2022-08-02T10:52:05.496Z,70.50
2022-08-02T10:54:38.637Z,70.50
2022-08-02T10:57:27.220Z,69.30
2022-08-02T11:00:01.753Z,69.10
2022-08-02T11:02:34.176Z,70.10
2022-08-02T11:05:06.755Z,71.20
2022-08-02T11:07:38.981Z,69.20
2022-08-02T11:10:27.774Z,68.50
2022-08-02T11:13:16.883Z,69.50
2022-08-02T11:16:01.412Z,68.00
2022-08-02T11:18:51.993Z,68.40
2022-08-02T11:21:30.730Z,68.00
2022-08-02T11:24:25.435Z,68.00
2022-08-02T11:26:53.425Z,69.60
2022-08-02T11:29:21.033Z,67.40
2022-08-02T11:31:48.759Z,68.10
2022-08-02T11:34:37.289Z,66.30
2022-08-02T11:37:05.242Z,66.30
2022-08-02T11:39:32.501Z,66.70
2022-08-02T11:42:01.528Z,66.50
2022-08-02T11:44:30.588Z,65.70
2022-08-02T11:47:00.338Z,65.20
2022-08-02T11:49:28.622Z,65.40
2022-08-02T11:52:08.217Z,65.30
2022-08-02T11:54:37.990Z,64.60
2022-08-02T11:57:19.710Z,63.90
2022-08-02T11:59:52.599Z,63.70
2022-08-02T12:02:22.203Z,63.70
2022-08-02T12:05:09.046Z,63.50
2022-08-02T12:07:45.586Z,64.20
2022-08-02T12:10:18.661Z,63.80
2022-08-02T12:13:00.681Z,64.00
2022-08-02T12:15:36.681Z,63.40
2022-08-02T12:18:28.124Z,62.80
2022-08-02T12:20:55.382Z,60.80
2022-08-02T12:23:23.141Z,60.40
2022-08-02T12:26:19.773Z,61.10
2022-08-02T12:28:47.050Z,60.60
2022-08-02T12:31:14.323Z,60.40
2022-08-02T12:33:53.153Z,60.30
2022-08-02T12:36:21.827Z,60.30
2022-08-02T12:38:52.636Z,60.70
2022-08-02T12:41:31.148Z,59.70
2022-08-02T12:44:00.319Z,58.20
2022-08-02T12:46:28.144Z,58.50
2022-08-02T12:49:17.959Z,57.50
2022-08-02T12:51:56.903Z,58.00
2022-08-02T12:54:38.848Z,57.10
2022-08-02T12:57:14.023Z,57.30
2022-08-02T12:59:44.562Z,56.80
2022-08-02T13:02:14.436Z,56.50
2022-08-02T13:04:50.071Z,55.50
2022-08-02T13:07:19.194Z,55.60
2022-08-02T13:09:48.572Z,54.60
2022-08-02T13:12:16.506Z,54.40
2022-08-02T13:14:45.644Z,53.10
2022-08-02T13:17:12.854Z,51.20
2022-08-02T13:19:41.001Z,48.80
2022-08-02T13:24:55.263Z,43.70
2022-08-02T13:27:24.793Z,42.00
2022-08-02T13:29:53.406Z,40.70
2022-08-02T13:32:21.348Z,39.40
2022-08-02T13:34:48.933Z,38.20
2022-08-02T13:37:16.737Z,36.80
2022-08-02T13:39:55.607Z,36.30
2022-08-02T13:42:27.477Z,34.70
2022-08-02T13:44:54.735Z,34.20
2022-08-02T13:47:35.778Z,34.30
2022-08-02T13:50:04.513Z,33.80
2022-08-02T13:52:34.008Z,34.90
2022-08-02T13:55:01.162Z,35.20
2022-08-02T13:57:28.605Z,34.80
2022-08-02T13:59:59.033Z,35.00
2022-08-02T14:02:28.399Z,35.70
2022-08-02T14:04:56.397Z,36.30
2022-08-02T14:07:23.601Z,36.10
2022-08-02T14:09:50.829Z,36.80
2022-08-02T14:12:18.230Z,37.30
2022-08-02T14:14:45.585Z,37.20
2022-08-02T14:17:13.625Z,36.70
2022-08-02T14:19:40.843Z,37.40
2022-08-02T14:22:11.275Z,38.80
2022-08-02T14:24:41.604Z,39.50
2022-08-02T14:27:09.521Z,39.10
2022-08-02T14:29:37.026Z,39.30
2022-08-02T14:32:04.401Z,39.20
2022-08-02T14:34:31.663Z,38.90
2022-08-02T14:36:59.079Z,38.90
2022-08-02T14:39:26.281Z,38.80
2022-08-02T14:41:59.203Z,39.10
2022-08-02T14:44:28.010Z,39.10
2022-08-02T14:46:56.097Z,38.20
2022-08-02T14:49:25.148Z,38.20
2022-08-02T14:51:55.044Z,38.70
2022-08-02T14:54:28.219Z,38.80
2022-08-02T14:57:00.584Z,38.70
2022-08-02T14:59:28.365Z,38.40
2022-08-02T15:01:55.826Z,38.50
2022-08-02T15:04:23.078Z,37.50
2022-08-02T15:06:50.633Z,38.00
2022-08-02T15:09:18.262Z,38.30
2022-08-02T15:11:47.383Z,38.40
2022-08-02T15:14:19.085Z,38.10
2022-08-02T15:16:58.495Z,38.20
2022-08-02T15:19:56.087Z,38.30
2022-08-02T15:22:17.037Z,38.90
2022-08-02T15:24:47.386Z,38.60
2022-08-02T15:27:15.275Z,38.40
2022-08-02T15:29:44.856Z,38.40
2022-08-02T15:32:13.354Z,38.70
2022-08-02T15:34:41.150Z,38.90
2022-08-02T15:37:08.432Z,38.80
2022-08-02T15:39:35.996Z,38.50
2022-08-02T15:42:03.707Z,38.20
2022-08-02T15:44:31.161Z,38.60
2022-08-02T15:46:58.577Z,39.00
2022-08-02T15:49:26.452Z,39.20
2022-08-02T15:51:54.643Z,39.10
2022-08-02T15:54:21.873Z,38.70
2022-08-02T15:56:49.418Z,39.10
2022-08-02T15:59:16.989Z,39.30
2022-08-02T16:01:47.431Z,39.50
2022-08-02T16:04:16.406Z,39.40
2022-08-02T16:06:44.645Z,39.10
2022-08-02T16:09:12.289Z,39.50
2022-08-02T16:11:39.504Z,40.10
2022-08-02T16:14:07.388Z,40.20
2022-08-02T16:16:36.483Z,40.00
2022-08-02T16:19:46.656Z,39.60
2022-08-02T16:21:54.675Z,39.80
2022-08-02T16:24:23.490Z,39.80
2022-08-02T16:26:50.864Z,40.30
2022-08-02T16:29:19.734Z,40.60
2022-08-02T16:31:48.227Z,40.50
2022-08-02T16:34:16.486Z,40.20
2022-08-02T16:36:44.816Z,40.20
2022-08-02T16:39:12.307Z,40.40
2022-08-02T16:41:51.852Z,40.90
2022-08-02T16:44:29.814Z,41.00
2022-08-02T16:47:00.831Z,40.70
2022-08-02T16:50:04.659Z,41.30
2022-08-02T16:52:20.114Z,41.70
2022-08-02T16:54:49.902Z,41.90
2022-08-02T16:57:19.797Z,42.00
2022-08-02T16:59:57.362Z,41.90
2022-08-02T17:02:27.670Z,42.20
2022-08-02T17:04:55.597Z,42.40
2022-08-02T17:08:06.496Z,42.40
2022-08-02T17:10:11.959Z,42.30
2022-08-02T17:12:39.941Z,43.00
2022-08-02T17:15:52.899Z,42.50
2022-08-02T17:17:56.521Z,42.80
2022-08-02T17:20:24.273Z,43.10
2022-08-02T17:22:52.538Z,43.50
2022-08-02T17:25:22.603Z,43.90
2022-08-02T17:27:55.433Z,44.60
2022-08-02T17:30:26.584Z,44.80
2022-08-02T17:32:57.821Z,45.30
2022-08-02T17:35:52.542Z,45.40
2022-08-02T17:38:17.640Z,46.00
2022-08-02T17:40:45.458Z,46.40
2022-08-02T17:43:14.740Z,46.70
2022-08-02T17:46:00.036Z,47.10
2022-08-02T17:48:49.808Z,47.30
2022-08-02T17:52:16.133Z,47.50
2022-08-02T17:54:04.751Z,47.70
2022-08-02T17:56:33.751Z,48.00
2022-08-02T17:59:30.662Z,48.20
2022-08-02T18:02:03.677Z,48.50
2022-08-02T18:04:32.181Z,48.70
2022-08-02T18:07:03.960Z,48.90
2022-08-02T18:09:32.235Z,49.10
2022-08-02T18:11:59.623Z,49.40
2022-08-02T18:14:26.938Z,49.60
2022-08-02T18:16:54.597Z,49.80
2022-08-02T18:19:21.737Z,50.10
2022-08-02T18:21:48.905Z,50.20
2022-08-02T18:24:16.373Z,50.40
2022-08-02T18:26:43.800Z,50.60
2022-08-02T18:29:12.098Z,50.70
2022-08-02T18:31:40.243Z,51.00
2022-08-02T18:34:24.146Z,51.20
2022-08-02T18:36:51.708Z,51.40
2022-08-02T18:39:19.477Z,51.60
2022-08-02T18:41:47.879Z,51.70
2022-08-02T18:44:16.690Z,51.90
2022-08-02T18:46:46.300Z,52.00
2022-08-02T18:49:16.921Z,52.30
2022-08-02T18:51:44.821Z,52.30
2022-08-02T18:54:12.365Z,52.00
2022-08-02T18:56:47.089Z,52.00
2022-08-02T18:59:19.209Z,52.00
2022-08-02T19:01:51.120Z,52.10
2022-08-02T19:04:27.713Z,52.20
2022-08-02T19:07:07.513Z,52.40
2022-08-02T19:09:41.620Z,52.50
2022-08-02T19:12:11.474Z,52.60
2022-08-02T19:14:41.450Z,52.70
2022-08-02T19:17:54.507Z,52.90
2022-08-02T19:19:59.100Z,53.00
2022-08-02T19:22:29.938Z,53.00
2022-08-02T19:25:01.512Z,53.30
2022-08-02T19:27:37.900Z,53.40
2022-08-02T19:30:10.731Z,53.70
2022-08-02T19:32:59.527Z,53.90
2022-08-02T19:35:34.404Z,54.00
2022-08-02T19:38:14.965Z,55.10
2022-08-02T19:40:45.715Z,55.00
2022-08-02T19:44:26.937Z,55.10
2022-08-02T19:46:03.839Z,55.10
2022-08-02T19:48:33.778Z,54.90
2022-08-02T19:51:07.776Z,54.50
2022-08-02T19:53:48.188Z,54.80
2022-08-02T19:56:40.725Z,55.50
2022-08-02T19:59:13.071Z,55.80
2022-08-02T20:01:59.701Z,56.10
2022-08-02T20:04:33.619Z,56.20
2022-08-02T20:07:07.174Z,56.40
2022-08-02T20:09:47.203Z,56.90
2022-08-02T20:12:20.121Z,57.60
2022-08-02T20:14:51.896Z,58.30
2022-08-02T20:17:25.747Z,58.80
2022-08-02T20:19:56.139Z,59.80
2022-08-02T20:22:27.679Z,60.30
2022-08-02T20:24:58.644Z,60.30
2022-08-02T20:27:30.259Z,60.70
2022-08-02T20:29:59.369Z,60.70
2022-08-02T20:32:28.583Z,61.40
2022-08-02T20:34:58.728Z,61.60
2022-08-02T20:37:59.722Z,62.20
2022-08-02T20:40:18.589Z,63.00
2022-08-02T20:42:49.229Z,64.10
2022-08-02T20:45:27.197Z,63.40
2022-08-02T20:48:00.163Z,62.90
2022-08-02T20:50:49.625Z,62.10
2022-08-02T20:53:24.210Z,62.30
2022-08-02T20:55:56.141Z,62.10
2022-08-02T20:58:28.176Z,61.90
2022-08-02T21:01:05.270Z,62.40
2022-08-02T21:03:40.152Z,63.00
2022-08-02T21:06:14.815Z,63.50
2022-08-02T21:09:15.522Z,63.20
2022-08-02T21:11:50.976Z,63.60
2022-08-02T21:14:35.812Z,63.70
2022-08-02T21:17:06.517Z,63.90
2022-08-02T21:19:36.891Z,64.90
2022-08-02T21:22:15.114Z,66.00
2022-08-02T21:24:46.510Z,65.90
2022-08-02T21:27:51.742Z,66.50
2022-08-02T21:30:11.159Z,67.20
2022-08-02T21:32:41.017Z,68.30
2022-08-02T21:35:10.920Z,68.90
2022-08-02T21:37:44.830Z,69.30
2022-08-02T21:40:16.510Z,69.70
2022-08-02T21:42:46.252Z,69.90
2022-08-02T21:45:22.764Z,69.70
2022-08-02T21:47:55.629Z,69.70
2022-08-02T21:50:23.349Z,69.80
2022-08-02T21:52:56.840Z,69.70
2022-08-02T21:56:00.936Z,69.70
2022-08-02T21:58:22.337Z,69.00
2022-08-02T22:00:51.341Z,69.00
2022-08-02T22:03:22.966Z,68.90
2022-08-02T22:05:50.859Z,68.70
2022-08-02T22:08:20.426Z,68.70
2022-08-02T22:11:03.243Z,70.00
2022-08-02T22:13:47.664Z,70.60
2022-08-02T22:16:18.461Z,70.40
2022-08-02T22:18:50.342Z,73.30
2022-08-02T22:21:29.011Z,75.10
2022-08-02T22:24:19.536Z,76.90
2022-08-02T22:27:00.870Z,79.00
2022-08-02T22:29:33.782Z,80.50
2022-08-02T22:32:07.983Z,81.30
2022-08-02T22:34:52.126Z,82.00
2022-08-02T22:38:14.513Z,83.00
2022-08-02T22:40:12.590Z,83.90
2022-08-02T22:42:43.875Z,84.20
2022-08-02T22:45:14.736Z,85.20
2022-08-02T22:47:50.866Z,86.30
2022-08-02T22:50:20.701Z,86.20
2022-08-02T22:52:50.291Z,86.10
2022-08-02T22:55:18.533Z,86.90
2022-08-02T22:57:56.691Z,87.60
2022-08-02T23:00:28.811Z,87.80
2022-08-02T23:02:59.644Z,88.20
2022-08-02T23:05:28.571Z,88.50
2022-08-02T23:07:59.478Z,88.60
2022-08-02T23:10:30.465Z,89.90
2022-08-02T23:12:59.351Z,88.60
2022-08-02T23:15:29.423Z,89.90
2022-08-02T23:18:24.016Z,91.20
2022-08-02T23:20:51.634Z,92.10
2022-08-02T23:23:22.801Z,92.40
2022-08-02T23:25:53.402Z,92.50
2022-08-02T23:28:25.529Z,93.20
2022-08-02T23:30:56.164Z,93.40
2022-08-02T23:33:25.470Z,93.40
2022-08-02T23:35:55.965Z,93.60
2022-08-02T23:38:26.453Z,93.90
2022-08-02T23:40:56.897Z,93.70
2022-08-02T23:43:29.405Z,93.70
2022-08-02T23:46:06.913Z,93.60
2022-08-02T23:48:36.681Z,93.70
2022-08-02T23:51:06.539Z,93.80
2022-08-02T23:53:38.084Z,93.90
2022-08-02T23:56:10.140Z,93.70
2022-08-02T23:58:41.978Z,93.60
